Time;durP1;ratioP1;P1;durP2;ratioP2;P2;SDS_P1;SDS_P2;PMS_P1;PMS_P2;Temp;Humidity;BMP_temperature;BMP_pressure;BME280_temperature;BME280_humidity;BME280_pressure;Samples;Min_cycle;Max_cycle;Signal;HPM_P1;HPM_P2
2023/09/01 00:01:00;;;;;;;9.53;3.90;;;;;;;-145.18;100.00;46656.50;5034284;28;20029;-62
2023/09/01 00:03:25;;;;;;;11.67;3.93;;;;;;;-145.18;100.00;46654.53;5034109;28;20037;-61
2023/09/01 00:05:51;;;;;;;13.40;4.13;;;;;;;-145.18;100.00;46650.63;5024796;28;20110;-62
2023/09/01 00:08:16;;;;;;;10.47;4.70;;;;;;;-145.18;100.00;46652.59;5017149;28;20052;-62
2023/09/01 00:10:42;;;;;;;9.80;4.60;;;;;;;-145.18;100.00;46652.59;5032181;28;20064;-61
2023/09/01 00:13:07;;;;;;;8.67;4.63;;;;;;;-145.18;100.00;46650.63;5033449;28;20082;-61
2023/09/01 00:15:33;;;;;;;10.20;4.07;;;;;;;-145.18;100.00;46652.59;5031380;28;20033;-62
2023/09/01 00:17:58;;;;;;;6.97;3.87;;;;;;;-145.18;100.00;46654.53;5032391;28;20504;-62
2023/09/01 00:20:24;;;;;;;7.93;4.10;;;;;;;-145.18;100.00;46646.72;5033592;28;20104;-62
2023/09/01 00:22:49;;;;;;;11.10;4.27;;;;;;;-145.18;100.00;46644.78;5032442;28;20048;-62
2023/09/01 00:25:15;;;;;;;8.60;4.17;;;;;;;-145.18;100.00;46650.63;5028932;28;20033;-62
2023/09/01 00:27:40;;;;;;;12.27;4.67;;;;;;;-145.18;100.00;46646.72;5031576;28;20393;-62
2023/09/01 00:30:08;;;;;;;10.73;4.73;;;;;;;-145.18;100.00;46650.63;5033577;28;20029;-62
2023/09/01 00:32:33;;;;;;;13.43;4.37;;;;;;;-145.18;100.00;46646.72;5032566;28;20083;-62
2023/09/01 00:34:58;;;;;;;9.53;4.73;;;;;;;-145.18;100.00;46644.78;5028459;28;20531;-62
2023/09/01 00:37:24;;;;;;;11.40;5.00;;;;;;;-145.18;100.00;46646.72;5028172;28;20025;-62
2023/09/01 00:39:50;;;;;;;10.27;4.77;;;;;;;-145.18;100.00;46646.72;5027994;28;20075;-62
2023/09/01 00:42:15;;;;;;;9.33;5.03;;;;;;;-145.18;100.00;46652.59;5023517;28;20454;-62
2023/09/01 00:44:40;;;;;;;10.10;5.17;;;;;;;-145.18;100.00;46646.72;5031031;28;20033;-62
2023/09/01 00:47:07;;;;;;;11.97;5.37;;;;;;;-145.18;100.00;46648.69;5015728;28;20061;-61
2023/09/01 00:49:33;;;;;;;10.53;6.00;;;;;;;-145.18;100.00;46652.59;5021217;28;20052;-62
2023/09/01 00:51:59;;;;;;;12.73;5.00;;;;;;;-145.18;100.00;46646.72;5032186;28;20037;-62
2023/09/01 00:54:25;;;;;;;8.47;4.80;;;;;;;-145.18;100.00;46656.50;5024307;28;20025;-61
2023/09/01 00:56:55;;;;;;;12.57;5.00;;;;;;;-145.18;100.00;46648.69;5033201;28;20131;-62
2023/09/01 00:59:20;;;;;;;12.13;5.40;;;;;;;-145.18;100.00;46652.59;5022997;28;20112;-62
2023/09/01 01:01:47;;;;;;;11.53;4.47;;;;;;;-145.18;100.00;46654.53;5021451;28;20116;-62
2023/09/01 01:04:14;;;;;;;14.00;4.63;;;;;;;-145.18;100.00;46652.59;5025919;28;20354;-62
2023/09/01 01:07:09;;;;;;;13.90;5.33;;;;;;;-145.18;100.00;46650.63;5028725;28;20092;-62
2023/09/01 01:10:06;;;;;;;8.53;5.33;;;;;;;-145.18;100.00;46648.69;5027159;28;20026;-62
2023/09/01 01:12:59;;;;;;;9.47;5.07;;;;;;;-145.18;100.00;46648.69;5022589;28;20022;-62
2023/09/01 01:15:26;;;;;;;16.53;5.40;;;;;;;-145.18;100.00;46648.69;5026260;28;20045;-62
2023/09/01 01:17:55;;;;;;;9.47;4.37;;;;;;;-145.18;100.00;46646.72;5013137;28;20145;-62
2023/09/01 01:20:33;;;;;;;10.47;5.30;;;;;;;-145.18;100.00;46648.69;5028299;28;20497;-61
2023/09/01 01:23:12;;;;;;;10.63;5.00;;;;;;;-145.18;100.00;46648.69;5032306;28;20018;-62
2023/09/01 01:25:46;;;;;;;12.03;5.33;;;;;;;-145.18;100.00;46650.63;5032674;28;20074;-62
2023/09/01 01:28:11;;;;;;;11.90;5.17;;;;;;;-145.18;100.00;46648.69;5016269;28;20556;-61
2023/09/01 01:30:37;;;;;;;10.33;4.57;;;;;;;-145.18;100.00;46642.81;5023137;28;20185;-62
2023/09/01 01:33:03;;;;;;;12.23;5.47;;;;;;;-145.18;100.00;46648.69;5019267;28;20056;-62
2023/09/01 01:35:48;;;;;;;11.90;5.23;;;;;;;-145.18;100.00;46644.78;5021217;28;20108;-62
2023/09/01 01:38:28;;;;;;;9.97;4.87;;;;;;;-145.18;100.00;46648.69;5025639;28;20033;-62
2023/09/01 01:41:04;;;;;;;9.97;4.90;;;;;;;-145.18;100.00;46642.81;5023196;28;20371;-62
2023/09/01 01:43:31;;;;;;;10.45;5.40;;;;;;;-145.18;100.00;46654.53;5032073;28;20071;-62
2023/09/01 01:45:58;;;;;;;7.43;4.70;;;;;;;-145.18;100.00;46646.72;5015361;28;20090;-62
2023/09/01 01:48:23;;;;;;;9.33;4.90;;;;;;;-145.18;100.00;46642.81;5028430;28;20083;-62
2023/09/01 01:50:49;;;;;;;7.80;4.73;;;;;;;-145.18;100.00;46648.69;5028284;28;20041;-62
2023/09/01 01:53:14;;;;;;;7.87;4.60;;;;;;;-145.18;100.00;46644.78;5028230;28;20064;-68
2023/09/01 01:55:40;;;;;;;9.03;5.03;;;;;;;-145.18;100.00;46644.78;5030842;28;20033;-68
2023/09/01 01:58:05;;;;;;;11.93;4.53;;;;;;;-145.18;100.00;46642.81;5027883;28;20037;-68
2023/09/01 02:00:32;;;;;;;11.03;5.00;;;;;;;-145.18;100.00;46642.81;5030634;28;20040;-68
2023/09/01 02:02:58;;;;;;;11.67;4.37;;;;;;;-145.18;100.00;46646.72;5028097;28;20111;-68
2023/09/01 02:05:25;;;;;;;8.00;4.40;;;;;;;-145.18;100.00;46644.78;5024693;28;20029;-68
2023/09/01 02:07:51;;;;;;;7.97;4.10;;;;;;;-145.18;100.00;46642.81;5029281;28;20057;-68
2023/09/01 02:10:17;;;;;;;8.77;4.80;;;;;;;-145.18;100.00;46640.88;5028077;28;20751;-68
2023/09/01 02:12:43;;;;;;;9.17;5.17;;;;;;;-145.18;100.00;46644.78;5029350;28;20536;-68
2023/09/01 02:15:09;;;;;;;10.40;4.50;;;;;;;-145.18;100.00;46644.78;5022960;28;20026;-68
2023/09/01 02:17:36;;;;;;;7.03;3.97;;;;;;;-145.18;100.00;46640.88;5012152;28;20030;-68
2023/09/01 02:20:11;;;;;;;8.50;4.53;;;;;;;-145.18;100.00;46640.88;5012264;28;20030;-68
2023/09/01 02:22:36;;;;;;;6.07;4.28;;;;;;;-145.18;100.00;46640.88;5025231;28;20028;-68
2023/09/01 02:25:08;;;;;;;8.73;4.80;;;;;;;-145.18;100.00;46640.88;5025238;28;20370;-68
2023/09/01 02:27:33;;;;;;;10.70;4.73;;;;;;;-145.18;100.00;46642.81;5021133;28;20038;-68
2023/09/01 02:29:58;;;;;;;7.40;4.60;;;;;;;-145.18;100.00;46646.72;5015915;28;20026;-68
2023/09/01 02:32:24;;;;;;;10.47;5.03;;;;;;;-145.18;100.00;46648.69;5024156;28;20108;-68
2023/09/01 02:34:49;;;;;;;12.40;5.80;;;;;;;-145.18;100.00;46642.81;5022550;28;20389;-68
2023/09/01 02:37:15;;;;;;;9.70;5.20;;;;;;;-145.18;100.00;46642.81;5019544;28;20494;-68
2023/09/01 02:39:40;;;;;;;11.67;5.07;;;;;;;-145.18;100.00;46642.81;5023152;28;20048;-68
2023/09/01 02:42:05;;;;;;;9.23;5.00;;;;;;;-145.18;100.00;46646.72;5017271;28;20517;-68
2023/09/01 02:44:31;;;;;;;9.93;4.73;;;;;;;-145.18;100.00;46646.72;5036322;28;20033;-68
2023/09/01 02:46:56;;;;;;;10.50;5.13;;;;;;;-145.18;100.00;46646.72;5020787;28;20037;-68
2023/09/01 02:49:21;;;;;;;12.10;5.63;;;;;;;-145.18;100.00;46642.81;5020433;28;20021;-68
2023/09/01 02:51:48;;;;;;;11.53;5.83;;;;;;;-145.18;100.00;46638.91;5015712;28;20030;-67
2023/09/01 02:54:14;;;;;;;11.17;5.90;;;;;;;-145.18;100.00;46646.72;5030363;28;20026;-68
2023/09/01 02:56:39;;;;;;;18.87;7.03;;;;;;;-145.18;100.00;46644.78;5026901;28;20056;-68
2023/09/01 02:59:04;;;;;;;13.63;5.87;;;;;;;-145.18;100.00;46644.78;5021545;28;20059;-68
2023/09/01 03:01:30;;;;;;;16.13;6.60;;;;;;;-145.18;100.00;46638.91;5017626;28;20100;-68
2023/09/01 03:03:56;;;;;;;14.80;6.63;;;;;;;-145.18;100.00;46644.78;5029666;28;20036;-68
2023/09/01 03:06:21;;;;;;;11.67;5.53;;;;;;;-145.18;100.00;46636.94;5018232;28;20033;-67
2023/09/01 03:08:47;;;;;;;11.53;5.53;;;;;;;-145.18;100.00;46638.91;5020804;28;20522;-68
2023/09/01 03:11:12;;;;;;;10.10;5.43;;;;;;;-145.18;100.00;46638.91;5016630;28;20037;-68
2023/09/01 03:13:37;;;;;;;13.87;6.13;;;;;;;-145.18;100.00;46660.41;5017103;28;20481;-68
2023/09/01 03:16:04;;;;;;;15.77;5.60;;;;;;;-145.18;100.00;46640.88;5034060;28;20044;-68
2023/09/01 03:18:29;;;;;;;11.67;5.17;;;;;;;-145.18;100.00;46635.00;5022256;28;20429;-68
2023/09/01 03:21:07;;;;;;;12.17;5.80;;;;;;;-145.18;100.00;46635.00;5034089;28;20034;-68
2023/09/01 03:23:32;;;;;;;15.43;5.60;;;;;;;-145.18;100.00;46636.94;5029209;28;20138;-68
2023/09/01 03:25:58;;;;;;;14.50;5.80;;;;;;;-145.18;100.00;46636.94;5023150;28;20129;-68
2023/09/01 03:28:23;;;;;;;16.17;5.73;;;;;;;-145.18;100.00;46636.94;5031567;28;20076;-68
2023/09/01 03:30:48;;;;;;;13.00;5.77;;;;;;;-145.18;100.00;46660.41;5033666;28;20382;-68
2023/09/01 03:33:14;;;;;;;9.70;5.60;;;;;;;-145.18;100.00;46633.06;5031528;28;20384;-68
2023/09/01 03:35:39;;;;;;;11.67;5.20;;;;;;;-145.18;100.00;46633.06;5033892;28;20039;-68
2023/09/01 03:38:05;;;;;;;10.47;5.57;;;;;;;-145.18;100.00;46660.41;5031667;28;20033;-68
2023/09/01 03:40:31;;;;;;;11.27;5.17;;;;;;;-145.18;100.00;46660.41;5033683;28;20069;-68
2023/09/01 03:42:56;;;;;;;14.23;5.17;;;;;;;-145.18;100.00;46636.94;5031940;28;20029;-68
2023/09/01 03:45:22;;;;;;;11.90;5.40;;;;;;;-145.18;100.00;46638.91;5024750;28;20030;-68
2023/09/01 03:47:47;;;;;;;12.13;5.00;;;;;;;-145.18;100.00;46638.91;5029873;28;20034;-68
2023/09/01 03:50:13;;;;;;;7.33;5.03;;;;;;;-145.18;100.00;46636.94;5033222;28;20044;-68
2023/09/01 03:52:38;;;;;;;14.17;5.00;;;;;;;-145.18;100.00;46640.88;5031782;28;20488;-68
2023/09/01 03:55:04;;;;;;;15.37;4.93;;;;;;;-145.18;100.00;46660.41;5032882;28;20037;-68
2023/09/01 03:57:29;;;;;;;8.23;5.07;;;;;;;-145.18;100.00;46636.94;5033020;28;20038;-68
2023/09/01 03:59:55;;;;;;;8.63;4.43;;;;;;;-145.18;100.00;46642.81;5033985;28;20038;-68
2023/09/01 04:02:21;;;;;;;9.87;5.10;;;;;;;-145.18;100.00;46636.94;5030664;28;20037;-68
2023/09/01 04:04:47;;;;;;;11.83;4.83;;;;;;;-145.18;100.00;46642.81;5024064;28;20037;-68
2023/09/01 04:07:13;;;;;;;9.93;4.53;;;;;;;-145.18;100.00;46636.94;5028224;28;20057;-68
2023/09/01 04:09:38;;;;;;;13.70;5.23;;;;;;;-145.18;100.00;46660.41;5032604;28;20049;-68
2023/09/01 04:12:04;;;;;;;11.43;4.90;;;;;;;-145.18;100.00;46638.91;5031443;28;20022;-68
2023/09/01 04:14:29;;;;;;;10.40;5.27;;;;;;;-145.18;100.00;46635.00;5027458;28;20060;-68
2023/09/01 04:16:54;;;;;;;14.97;4.83;;;;;;;-145.18;100.00;46633.06;5026687;28;20033;-68
2023/09/01 04:19:20;;;;;;;10.37;5.20;;;;;;;-145.18;100.00;46660.41;5014444;28;20124;-68
2023/09/01 04:21:45;;;;;;;7.97;4.40;;;;;;;-145.18;100.00;46635.00;5027532;28;20454;-68
2023/09/01 04:24:10;;;;;;;11.43;5.30;;;;;;;-145.18;100.00;46660.41;5024789;28;20037;-68
2023/09/01 04:26:36;;;;;;;11.13;5.40;;;;;;;-145.18;100.00;46633.06;5021531;28;20049;-68
2023/09/01 04:29:01;;;;;;;7.37;4.87;;;;;;;-145.18;100.00;46633.06;5029431;28;20021;-68
2023/09/01 04:31:28;;;;;;;11.90;5.30;;;;;;;-145.18;100.00;46631.09;5028901;28;20377;-68
2023/09/01 04:33:56;;;;;;;8.60;5.30;;;;;;;-145.18;100.00;46636.94;5033023;28;20076;-68
2023/09/01 04:36:22;;;;;;;9.33;5.20;;;;;;;-145.18;100.00;46635.00;5023743;28;20034;-68
2023/09/01 04:38:48;;;;;;;8.97;5.43;;;;;;;-145.18;100.00;46635.00;5021634;28;20546;-68
2023/09/01 04:41:14;;;;;;;10.70;5.27;;;;;;;-145.18;100.00;46660.41;5021952;28;20109;-68
2023/09/01 04:43:39;;;;;;;12.87;5.20;;;;;;;-145.18;100.00;46633.06;5027205;28;20389;-68
2023/09/01 04:46:05;;;;;;;9.50;5.07;;;;;;;-145.18;100.00;46631.09;5023686;28;20052;-68
2023/09/01 04:48:31;;;;;;;8.27;5.33;;;;;;;-145.18;100.00;46631.09;5033279;28;20037;-68
2023/09/01 04:50:57;;;;;;;12.70;5.33;;;;;;;-145.18;100.00;46660.41;5021594;28;20042;-68
2023/09/01 04:53:22;;;;;;;15.83;5.57;;;;;;;-145.18;100.00;46631.09;5018947;28;20030;-68
2023/09/01 04:55:49;;;;;;;11.27;5.40;;;;;;;-145.18;100.00;46636.94;5020872;28;20034;-68
2023/09/01 04:58:14;;;;;;;14.70;5.10;;;;;;;-145.18;100.00;46633.06;5022958;28;20485;-68
2023/09/01 05:00:41;;;;;;;12.00;5.70;;;;;;;-145.18;100.00;46660.41;5025487;28;20044;-68
2023/09/01 05:03:07;;;;;;;10.83;5.07;;;;;;;-145.18;100.00;46629.13;5026824;28;20029;-68
2023/09/01 05:05:32;;;;;;;9.20;4.87;;;;;;;-145.18;100.00;46633.06;5026780;28;20432;-68
2023/09/01 05:07:57;;;;;;;10.97;5.53;;;;;;;-145.18;100.00;46660.41;5027292;28;20510;-68
2023/09/01 05:10:23;;;;;;;14.93;5.33;;;;;;;-145.18;100.00;46636.94;5023887;28;20042;-68
2023/09/01 05:12:48;;;;;;;14.73;5.57;;;;;;;-145.18;100.00;46631.09;5025425;28;20485;-69
2023/09/01 05:15:13;;;;;;;9.17;5.03;;;;;;;-145.18;100.00;46633.06;5029099;28;20108;-68
2023/09/01 05:17:39;;;;;;;13.23;5.50;;;;;;;-145.18;100.00;46631.09;5032636;28;20037;-68
2023/09/01 05:20:09;;;;;;;9.90;4.63;;;;;;;-145.18;100.00;46633.06;5012400;28;20058;-68
2023/09/01 05:22:35;;;;;;;14.30;5.20;;;;;;;-145.18;100.00;46636.94;5026165;28;20413;-68
2023/09/01 05:25:00;;;;;;;12.07;5.57;;;;;;;-145.18;100.00;46636.94;5029330;28;20032;-62
2023/09/01 05:27:26;;;;;;;9.43;5.23;;;;;;;-145.18;100.00;46631.09;5031007;28;20075;-62
2023/09/01 05:29:52;;;;;;;10.90;5.20;;;;;;;-145.18;100.00;46631.09;5028784;28;20026;-62
2023/09/01 05:32:20;;;;;;;11.83;6.33;;;;;;;-145.18;100.00;46631.09;5032255;28;20045;-62
2023/09/01 05:34:45;;;;;;;16.40;5.73;;;;;;;-145.18;100.00;46635.00;5028274;28;20393;-62
2023/09/01 05:37:14;;;;;;;9.37;5.17;;;;;;;-145.18;100.00;46629.13;5028751;28;20061;-62
2023/09/01 05:39:40;;;;;;;14.03;6.03;;;;;;;-145.18;100.00;46633.06;5026404;28;20034;-61
2023/09/01 05:42:07;;;;;;;10.53;5.70;;;;;;;-145.18;100.00;46633.06;5028545;28;20037;-62
2023/09/01 05:44:33;;;;;;;13.43;6.03;;;;;;;-145.18;100.00;46633.06;5026803;28;20037;-62
2023/09/01 05:46:58;;;;;;;10.93;5.97;;;;;;;-145.18;100.00;46631.09;5030241;28;20406;-63
2023/09/01 05:49:24;;;;;;;11.83;5.90;;;;;;;-145.18;100.00;46635.00;5021783;28;20036;-61
2023/09/01 05:51:50;;;;;;;11.00;5.53;;;;;;;-145.18;100.00;46635.00;5029400;28;20048;-62
2023/09/01 05:54:17;;;;;;;16.40;5.73;;;;;;;-145.18;100.00;46629.13;5030249;28;20453;-62
2023/09/01 05:56:42;;;;;;;12.97;5.10;;;;;;;-145.18;100.00;46631.09;5029944;28;20112;-62
2023/09/01 05:59:08;;;;;;;11.10;5.53;;;;;;;-145.18;100.00;46633.06;5017663;28;20113;-62
2023/09/01 06:01:35;;;;;;;16.27;6.10;;;;;;;-145.18;100.00;46631.09;5031245;28;20430;-61
2023/09/01 06:04:03;;;;;;;13.40;6.10;;;;;;;-145.18;100.00;46631.09;5016643;28;20033;-62
2023/09/01 06:06:30;;;;;;;11.80;6.13;;;;;;;-145.18;100.00;46633.06;5030252;28;20044;-62
2023/09/01 06:08:55;;;;;;;13.07;6.20;;;;;;;-145.18;100.00;46635.00;5028520;28;20044;-62
2023/09/01 06:11:20;;;;;;;20.53;6.97;;;;;;;-145.18;100.00;46636.94;5028730;28;20440;-62
2023/09/01 06:13:46;;;;;;;13.13;6.27;;;;;;;-145.18;100.00;46633.06;5028446;28;20044;-62
2023/09/01 06:16:11;;;;;;;15.83;6.93;;;;;;;-145.18;100.00;46633.06;5025216;28;20083;-62
2023/09/01 06:18:37;;;;;;;16.57;6.63;;;;;;;-145.18;100.00;46633.06;5023623;28;20104;-62
2023/09/01 06:21:02;;;;;;;16.83;7.33;;;;;;;-145.18;100.00;46636.94;5030451;28;20126;-62
2023/09/01 06:23:27;;;;;;;17.67;7.63;;;;;;;-145.18;100.00;46633.06;5024175;28;20071;-62
2023/09/01 06:25:53;;;;;;;19.83;7.70;;;;;;;-145.18;100.00;46633.06;5030886;28;20091;-62
2023/09/01 06:28:18;;;;;;;20.50;7.80;;;;;;;-145.18;100.00;46636.94;5012242;28;20458;-62
2023/09/01 06:30:44;;;;;;;16.40;7.63;;;;;;;-145.18;100.00;46631.09;5026333;28;20033;-62
2023/09/01 06:33:09;;;;;;;19.57;7.63;;;;;;;-145.18;100.00;46636.94;5018821;28;20056;-68
2023/09/01 06:35:36;;;;;;;16.23;6.97;;;;;;;-145.18;100.00;46636.94;5024301;28;20112;-68
2023/09/01 06:38:07;;;;;;;15.93;7.27;;;;;;;-145.18;100.00;46635.00;5036765;28;20125;-68
2023/09/01 06:40:32;;;;;;;18.70;7.33;;;;;;;-145.18;100.00;46636.94;5021403;28;20636;-69
2023/09/01 06:42:58;;;;;;;23.97;8.10;;;;;;;-145.18;100.00;46631.09;5030578;28;20033;-68
2023/09/01 06:45:23;;;;;;;18.13;7.43;;;;;;;-145.18;100.00;46638.91;5021693;28;20041;-68
2023/09/01 06:47:55;;;;;;;21.20;6.57;;;;;;;-145.18;100.00;46636.94;5026609;28;20041;-69
2023/09/01 06:50:23;;;;;;;13.27;7.13;;;;;;;-145.18;100.00;46633.06;5020122;28;20037;-69
2023/09/01 06:52:48;;;;;;;16.00;7.60;;;;;;;-145.18;100.00;46638.91;5024718;28;20121;-68
2023/09/01 06:55:14;;;;;;;17.23;7.50;;;;;;;-145.18;100.00;46635.00;5017228;28;20029;-68
2023/09/01 06:57:40;;;;;;;13.70;6.90;;;;;;;-145.18;100.00;46636.94;5034739;28;20394;-69
2023/09/01 07:00:06;;;;;;;16.83;8.53;;;;;;;-145.18;100.00;46635.00;5029198;28;20404;-69
2023/09/01 07:02:32;;;;;;;17.10;7.00;;;;;;;-145.18;100.00;46636.94;5023928;28;20120;-69
2023/09/01 07:04:57;;;;;;;14.43;7.23;;;;;;;-145.18;100.00;46636.94;5019534;28;20120;-68
2023/09/01 07:07:23;;;;;;;12.73;7.00;;;;;;;-145.18;100.00;46640.88;5024480;28;20058;-68
2023/09/01 07:09:48;;;;;;;14.27;7.03;;;;;;;-145.18;100.00;46635.00;5017947;28;20030;-68
2023/09/01 07:12:15;;;;;;;18.17;7.73;;;;;;;-145.18;100.00;46633.06;5021407;28;20056;-69
2023/09/01 07:14:40;;;;;;;15.80;7.97;;;;;;;-145.18;100.00;46633.06;5026465;28;20045;-69
2023/09/01 07:17:06;;;;;;;15.53;7.47;;;;;;;-145.18;100.00;46635.00;5034680;28;20044;-68
2023/09/01 07:19:31;;;;;;;11.87;6.73;;;;;;;-145.18;100.00;46631.09;5019912;28;20462;-69
2023/09/01 07:21:56;;;;;;;11.27;8.07;;;;;;;-145.18;100.00;46640.88;5027172;28;20038;-68
2023/09/01 07:24:22;;;;;;;14.77;7.73;;;;;;;-145.18;100.00;46633.06;5024975;28;20037;-68
2023/09/01 07:26:47;;;;;;;12.07;7.33;;;;;;;-145.18;100.00;46629.13;5034000;28;20037;-68
2023/09/01 07:29:12;;;;;;;14.60;7.63;;;;;;;-145.18;100.00;46633.06;5034688;28;20036;-68
2023/09/01 07:31:38;;;;;;;17.03;8.20;;;;;;;-145.18;100.00;46627.19;5025208;28;20045;-68
2023/09/01 07:34:03;;;;;;;13.07;8.17;;;;;;;-145.18;100.00;46631.09;5031080;28;20041;-68
2023/09/01 07:36:28;;;;;;;19.50;7.90;;;;;;;-145.18;100.00;46627.19;5023418;28;20037;-69
2023/09/01 07:38:54;;;;;;;15.87;7.70;;;;;;;-145.18;100.00;46631.09;5036128;28;20441;-68
2023/09/01 07:41:19;;;;;;;15.67;8.10;;;;;;;-145.18;100.00;46625.22;5020644;28;20042;-68
2023/09/01 07:43:45;;;;;;;15.50;8.37;;;;;;;-145.18;100.00;46627.19;5027630;28;20029;-68
2023/09/01 07:46:10;;;;;;;16.00;7.77;;;;;;;-145.18;100.00;46633.06;5031710;28;20556;-68
2023/09/01 07:48:35;;;;;;;13.13;7.83;;;;;;;-145.18;100.00;46631.09;5023277;28;20034;-69
2023/09/01 07:51:01;;;;;;;10.50;7.03;;;;;;;-145.18;100.00;46627.19;5027628;28;20046;-69
2023/09/01 07:53:26;;;;;;;10.77;7.77;;;;;;;-145.18;100.00;46627.19;5031559;28;20490;-69
2023/09/01 07:55:51;;;;;;;13.97;8.33;;;;;;;-145.18;100.00;46623.28;5028883;28;20501;-69
2023/09/01 07:58:17;;;;;;;15.60;7.57;;;;;;;-145.18;100.00;46629.13;5034330;28;20037;-69
2023/09/01 08:00:43;;;;;;;15.13;7.60;;;;;;;-145.18;100.00;46633.06;5031699;28;20049;-68
2023/09/01 08:03:10;;;;;;;13.03;7.87;;;;;;;-145.18;100.00;46631.09;5032301;28;20072;-69
2023/09/01 08:05:37;;;;;;;18.57;7.47;;;;;;;-145.18;100.00;46627.19;5032117;28;20037;-68
2023/09/01 08:08:04;;;;;;;14.90;7.80;;;;;;;-145.18;100.00;46629.13;5025716;28;20111;-68
2023/09/01 08:10:29;;;;;;;12.37;7.33;;;;;;;-145.18;100.00;46629.13;5030644;28;20041;-68
2023/09/01 08:12:55;;;;;;;14.60;8.00;;;;;;;-145.18;100.00;46633.06;5029616;28;20504;-68
2023/09/01 08:15:20;;;;;;;12.30;7.93;;;;;;;-145.18;100.00;46633.06;5020227;28;20049;-69
2023/09/01 08:17:46;;;;;;;14.53;8.53;;;;;;;-145.18;100.00;46631.09;5025706;28;20120;-69
2023/09/01 08:20:11;;;;;;;12.20;8.53;;;;;;;-145.18;100.00;46629.13;5014315;28;20088;-68
2023/09/01 08:22:36;;;;;;;14.30;9.07;;;;;;;-145.18;100.00;46631.09;5024666;28;20045;-69
2023/09/01 08:25:03;;;;;;;16.57;7.47;;;;;;;-145.18;100.00;46625.22;5026951;28;20056;-68
2023/09/01 08:27:28;;;;;;;12.17;7.80;;;;;;;-145.18;100.00;46629.13;5010567;28;20044;-69
2023/09/01 08:29:54;;;;;;;14.73;8.97;;;;;;;-145.18;100.00;46631.09;5016718;28;20105;-68
2023/09/01 08:32:20;;;;;;;16.90;8.57;;;;;;;-145.18;100.00;46635.00;5025497;28;20037;-68
2023/09/01 08:34:47;;;;;;;16.73;8.67;;;;;;;-145.18;100.00;46629.13;5032994;28;20040;-69
2023/09/01 08:37:15;;;;;;;13.97;7.60;;;;;;;-145.18;100.00;46629.13;5033214;28;20030;-69
2023/09/01 08:39:41;;;;;;;13.40;8.03;;;;;;;-145.18;100.00;46627.19;5032439;28;20038;-68
2023/09/01 08:42:08;;;;;;;10.40;7.47;;;;;;;-145.18;100.00;46633.06;5037142;28;20040;-68
2023/09/01 08:44:35;;;;;;;12.67;8.03;;;;;;;-145.18;100.00;46635.00;5030777;28;20033;-69
2023/09/01 08:47:01;;;;;;;14.90;8.23;;;;;;;-145.18;100.00;46629.13;5031907;28;20045;-68
2023/09/01 08:49:28;;;;;;;14.73;7.60;;;;;;;-145.18;100.00;46631.09;5028933;28;20087;-68
2023/09/01 08:51:55;;;;;;;14.17;8.80;;;;;;;-145.18;100.00;46627.19;5033041;28;20121;-68
2023/09/01 08:54:21;;;;;;;17.17;9.37;;;;;;;-145.18;100.00;46629.13;5029164;28;21047;-63
2023/09/01 08:56:48;;;;;;;14.60;9.17;;;;;;;-145.18;100.00;46631.09;5032476;28;20113;-62
2023/09/01 08:59:14;;;;;;;15.67;9.67;;;;;;;-145.18;100.00;46635.00;5032631;28;20033;-62
2023/09/01 09:01:39;;;;;;;16.77;9.63;;;;;;;-145.18;100.00;46625.22;5032995;28;20504;-62
2023/09/01 09:04:05;;;;;;;15.23;9.33;;;;;;;-145.18;100.00;46631.09;5028713;28;20044;-62
2023/09/01 09:06:39;;;;;;;16.03;9.07;;;;;;;-145.18;100.00;46633.06;5028050;28;20045;-63
2023/09/01 09:09:15;;;;;;;15.57;9.30;;;;;;;-145.18;100.00;46631.09;5026393;28;20112;-63
2023/09/01 09:11:57;;;;;;;17.17;8.83;;;;;;;-145.18;100.00;46629.13;5021334;28;20064;-63
2023/09/01 09:14:27;;;;;;;11.63;8.73;;;;;;;-145.18;100.00;46629.13;5014131;28;20057;-62
2023/09/01 09:16:54;;;;;;;14.47;9.37;;;;;;;-145.18;100.00;46631.09;5014944;28;20088;-62
2023/09/01 09:19:20;;;;;;;18.40;8.97;;;;;;;-145.18;100.00;46625.22;5034002;28;20041;-62
2023/09/01 09:21:45;;;;;;;13.93;8.43;;;;;;;-145.18;100.00;46629.13;5026508;28;20453;-62
2023/09/01 09:24:11;;;;;;;13.40;8.57;;;;;;;-145.18;100.00;46625.22;5029274;28;20496;-62
2023/09/01 09:26:36;;;;;;;15.13;9.20;;;;;;;-145.18;100.00;46629.13;5016364;28;20486;-62
2023/09/01 09:29:11;;;;;;;13.43;8.07;;;;;;;-145.18;100.00;46627.19;5018748;28;20044;-62
2023/09/01 09:31:39;;;;;;;15.23;8.47;;;;;;;-145.18;100.00;46627.19;5026097;28;20041;-62
2023/09/01 09:34:24;;;;;;;16.90;8.90;;;;;;;-145.18;100.00;46625.22;5018404;28;20049;-62
2023/09/01 09:36:50;;;;;;;13.70;7.63;;;;;;;-145.18;100.00;46625.22;5031899;28;20029;-62
2023/09/01 09:39:30;;;;;;;13.47;8.27;;;;;;;-145.18;100.00;46623.28;5016675;28;20041;-62
2023/09/01 09:41:59;;;;;;;11.30;7.43;;;;;;;-145.18;100.00;46623.28;5027654;28;20033;-62
2023/09/01 09:44:35;;;;;;;13.27;7.93;;;;;;;-145.18;100.00;46623.28;5014797;28;20022;-62
2023/09/01 09:47:09;;;;;;;14.90;8.00;;;;;;;-145.18;100.00;46625.22;5026679;28;20478;-63
2023/09/01 09:49:37;;;;;;;11.93;7.83;;;;;;;-145.18;100.00;46623.28;5016470;28;20452;-62
2023/09/01 09:52:06;;;;;;;18.20;9.07;;;;;;;-145.18;100.00;46621.31;5020757;28;20088;-62
2023/09/01 09:54:32;;;;;;;15.13;8.70;;;;;;;-145.18;100.00;46623.28;5027190;28;20041;-62
2023/09/01 09:57:00;;;;;;;15.63;10.23;;;;;;;-145.18;100.00;46627.19;5024723;28;20041;-63
2023/09/01 09:59:37;;;;;;;13.13;8.47;;;;;;;-145.18;100.00;46625.22;5022650;28;20482;-62
2023/09/01 10:02:19;;;;;;;11.53;8.03;;;;;;;-145.18;100.00;46621.31;5037519;28;20029;-63
2023/09/01 10:04:46;;;;;;;17.30;8.57;;;;;;;-145.18;100.00;46625.22;5025509;28;20029;-69
2023/09/01 10:07:12;;;;;;;12.73;8.50;;;;;;;-145.18;100.00;46617.41;5017610;28;20053;-69
2023/09/01 10:09:38;;;;;;;13.47;8.40;;;;;;;-145.18;100.00;46621.31;5020284;28;20037;-69
2023/09/01 10:12:05;;;;;;;14.00;8.60;;;;;;;-145.18;100.00;46619.38;5016799;28;20458;-69
2023/09/01 10:14:30;;;;;;;15.13;8.73;;;;;;;-145.18;100.00;46619.38;5028037;28;20064;-63
2023/09/01 10:16:58;;;;;;;16.27;9.30;;;;;;;-145.18;100.00;46617.41;5031801;28;20103;-63
2023/09/01 10:19:26;;;;;;;13.33;8.07;;;;;;;-145.18;100.00;46617.41;5033188;28;20029;-63
2023/09/01 10:21:51;;;;;;;14.20;9.17;;;;;;;-145.18;100.00;46615.47;5027052;28;20033;-63
2023/09/01 10:24:17;;;;;;;14.63;9.30;;;;;;;-145.18;100.00;46617.41;5033729;28;20029;-63
2023/09/01 10:26:43;;;;;;;13.90;8.77;;;;;;;-145.18;100.00;46615.47;5034244;28;20025;-61
2023/09/01 10:29:11;;;;;;;15.70;9.40;;;;;;;-145.18;100.00;46615.47;5033784;28;20091;-63
2023/09/01 10:31:36;;;;;;;17.10;10.33;;;;;;;-145.18;100.00;46617.41;5034547;28;20421;-63
2023/09/01 10:34:06;;;;;;;13.53;8.80;;;;;;;-145.18;100.00;46615.47;5040400;28;20033;-63
2023/09/01 10:36:31;;;;;;;12.97;8.37;;;;;;;-145.18;100.00;46617.41;5027652;28;20037;-63
2023/09/01 10:39:19;;;;;;;12.37;8.17;;;;;;;-145.18;100.00;46617.41;5028445;28;20033;-63
2023/09/01 10:41:50;;;;;;;11.90;7.80;;;;;;;-145.18;100.00;46621.31;5027510;28;20032;-63
2023/09/01 10:44:16;;;;;;;13.43;8.83;;;;;;;-145.18;100.00;46619.38;5031593;28;20029;-63
2023/09/01 10:46:41;;;;;;;13.83;7.97;;;;;;;-145.18;100.00;46619.38;5024800;28;20059;-62
2023/09/01 10:49:07;;;;;;;11.63;8.33;;;;;;;-145.18;100.00;46625.22;5022111;28;20076;-63
2023/09/01 10:51:40;;;;;;;11.27;8.20;;;;;;;-145.18;100.00;46621.31;5031342;28;20040;-63
2023/09/01 10:54:14;;;;;;;10.60;8.13;;;;;;;-145.18;100.00;46625.22;5029163;28;20033;-63
2023/09/01 10:56:57;;;;;;;12.77;8.73;;;;;;;-145.18;100.00;46625.22;5032285;28;20492;-62
2023/09/01 10:59:29;;;;;;;10.07;7.23;;;;;;;-145.18;100.00;46625.22;5027918;28;20056;-63
2023/09/01 11:01:55;;;;;;;15.40;8.23;;;;;;;-145.18;100.00;46625.22;5029241;28;20034;-63